sensor_id;sensor_type;location;lat;lon;timestamp;P1;durP1;ratioP1;P2;durP2;ratioP2
48327;SDS011;34136;51.022;7.082;2022-07-24T00:00:42;8.73;;;5.90;;
48327;SDS011;34136;51.022;7.082;2022-07-24T00:03:34;7.75;;;5.47;;
48327;SDS011;34136;51.022;7.082;2022-07-24T00:06:20;6.18;;;5.57;;
48327;SDS011;34136;51.022;7.082;2022-07-24T00:09:06;6.65;;;5.93;;
48327;SDS011;34136;51.022;7.082;2022-07-24T00:11:53;7.45;;;5.93;;
48327;SDS011;34136;51.022;7.082;2022-07-24T00:14:39;8.18;;;5.70;;
48327;SDS011;34136;51.022;7.082;2022-07-24T00:17:25;8.20;;;5.35;;
48327;SDS011;34136;51.022;7.082;2022-07-24T00:20:11;7.15;;;5.68;;
48327;SDS011;34136;51.022;7.082;2022-07-24T00:22:58;8.20;;;5.50;;
48327;SDS011;34136;51.022;7.082;2022-07-24T00:25:44;5.72;;;5.10;;
48327;SDS011;34136;51.022;7.082;2022-07-24T00:28:31;6.95;;;5.45;;
48327;SDS011;34136;51.022;7.082;2022-07-24T00:31:17;7.40;;;5.80;;
48327;SDS011;34136;51.022;7.082;2022-07-24T00:34:03;9.60;;;5.82;;
48327;SDS011;34136;51.022;7.082;2022-07-24T00:36:50;8.77;;;5.65;;
48327;SDS011;34136;51.022;7.082;2022-07-24T00:39:36;8.13;;;5.60;;
48327;SDS011;34136;51.022;7.082;2022-07-24T00:42:22;9.45;;;5.65;;
48327;SDS011;34136;51.022;7.082;2022-07-24T00:45:08;6.68;;;5.45;;
48327;SDS011;34136;51.022;7.082;2022-07-24T00:47:55;6.25;;;5.63;;
48327;SDS011;34136;51.022;7.082;2022-07-24T00:50:42;7.65;;;5.63;;
48327;SDS011;34136;51.022;7.082;2022-07-24T00:53:29;7.40;;;5.60;;
48327;SDS011;34136;51.022;7.082;2022-07-24T00:56:16;6.00;;;5.20;;
48327;SDS011;34136;51.022;7.082;2022-07-24T00:59:03;5.90;;;5.10;;
48327;SDS011;34136;51.022;7.082;2022-07-24T01:01:49;6.18;;;4.90;;
48327;SDS011;34136;51.022;7.082;2022-07-24T01:04:37;8.23;;;5.82;;
48327;SDS011;34136;51.022;7.082;2022-07-24T01:07:24;8.10;;;5.80;;
48327;SDS011;34136;51.022;7.082;2022-07-24T01:10:11;7.80;;;5.97;;
48327;SDS011;34136;51.022;7.082;2022-07-24T01:12:57;8.23;;;5.85;;
48327;SDS011;34136;51.022;7.082;2022-07-24T01:15:45;7.32;;;5.43;;
48327;SDS011;34136;51.022;7.082;2022-07-24T01:18:32;7.18;;;5.38;;
48327;SDS011;34136;51.022;7.082;2022-07-24T01:21:19;6.88;;;5.85;;
48327;SDS011;34136;51.022;7.082;2022-07-24T01:24:05;6.07;;;5.53;;
48327;SDS011;34136;51.022;7.082;2022-07-24T01:26:52;8.02;;;5.53;;
48327;SDS011;34136;51.022;7.082;2022-07-24T01:29:38;8.02;;;5.63;;
48327;SDS011;34136;51.022;7.082;2022-07-24T01:32:24;5.70;;;5.10;;
48327;SDS011;34136;51.022;7.082;2022-07-24T01:35:10;10.93;;;6.70;;
48327;SDS011;34136;51.022;7.082;2022-07-24T01:37:57;7.47;;;5.88;;
48327;SDS011;34136;51.022;7.082;2022-07-24T01:40:43;8.18;;;6.28;;
48327;SDS011;34136;51.022;7.082;2022-07-24T01:43:29;7.25;;;6.53;;
48327;SDS011;34136;51.022;7.082;2022-07-24T01:46:16;9.32;;;6.50;;
48327;SDS011;34136;51.022;7.082;2022-07-24T01:49:02;7.85;;;6.78;;
48327;SDS011;34136;51.022;7.082;2022-07-24T01:51:48;9.57;;;6.45;;
48327;SDS011;34136;51.022;7.082;2022-07-24T01:54:35;7.90;;;6.47;;
48327;SDS011;34136;51.022;7.082;2022-07-24T01:57:21;7.60;;;6.15;;
48327;SDS011;34136;51.022;7.082;2022-07-24T02:00:08;7.57;;;6.05;;
48327;SDS011;34136;51.022;7.082;2022-07-24T02:02:59;11.32;;;6.25;;
48327;SDS011;34136;51.022;7.082;2022-07-24T02:05:45;8.07;;;6.38;;
48327;SDS011;34136;51.022;7.082;2022-07-24T02:08:32;7.53;;;6.00;;
48327;SDS011;34136;51.022;7.082;2022-07-24T02:11:18;6.90;;;6.20;;
48327;SDS011;34136;51.022;7.082;2022-07-24T02:14:06;9.60;;;5.72;;
48327;SDS011;34136;51.022;7.082;2022-07-24T02:16:52;8.27;;;6.10;;
48327;SDS011;34136;51.022;7.082;2022-07-24T02:19:39;8.75;;;6.50;;
48327;SDS011;34136;51.022;7.082;2022-07-24T02:22:25;7.38;;;5.78;;
48327;SDS011;34136;51.022;7.082;2022-07-24T02:25:11;7.35;;;6.22;;
48327;SDS011;34136;51.022;7.082;2022-07-24T02:27:58;9.40;;;6.45;;
48327;SDS011;34136;51.022;7.082;2022-07-24T02:30:45;9.10;;;5.88;;
48327;SDS011;34136;51.022;7.082;2022-07-24T02:33:32;7.72;;;6.32;;
48327;SDS011;34136;51.022;7.082;2022-07-24T02:36:18;7.65;;;6.35;;
48327;SDS011;34136;51.022;7.082;2022-07-24T02:39:05;7.80;;;6.15;;
48327;SDS011;34136;51.022;7.082;2022-07-24T02:41:51;6.90;;;6.20;;
48327;SDS011;34136;51.022;7.082;2022-07-24T02:44:37;7.13;;;6.22;;
48327;SDS011;34136;51.022;7.082;2022-07-24T02:47:23;6.50;;;5.90;;
48327;SDS011;34136;51.022;7.082;2022-07-24T02:50:10;9.50;;;5.70;;
48327;SDS011;34136;51.022;7.082;2022-07-24T02:52:56;8.98;;;6.30;;
48327;SDS011;34136;51.022;7.082;2022-07-24T02:55:42;7.05;;;6.43;;
48327;SDS011;34136;51.022;7.082;2022-07-24T02:58:29;8.55;;;6.47;;
48327;SDS011;34136;51.022;7.082;2022-07-24T03:01:15;6.85;;;6.15;;
48327;SDS011;34136;51.022;7.082;2022-07-24T03:04:02;7.07;;;6.25;;
48327;SDS011;34136;51.022;7.082;2022-07-24T03:06:48;8.50;;;6.45;;
48327;SDS011;34136;51.022;7.082;2022-07-24T03:09:35;9.63;;;6.40;;
48327;SDS011;34136;51.022;7.082;2022-07-24T03:12:21;8.43;;;6.35;;
48327;SDS011;34136;51.022;7.082;2022-07-24T03:15:07;7.97;;;6.80;;
48327;SDS011;34136;51.022;7.082;2022-07-24T03:17:55;6.57;;;5.97;;
48327;SDS011;34136;51.022;7.082;2022-07-24T03:20:42;7.30;;;5.95;;
48327;SDS011;34136;51.022;7.082;2022-07-24T03:23:28;7.70;;;6.07;;
48327;SDS011;34136;51.022;7.082;2022-07-24T03:26:14;6.78;;;6.10;;
48327;SDS011;34136;51.022;7.082;2022-07-24T03:29:00;7.32;;;5.93;;
48327;SDS011;34136;51.022;7.082;2022-07-24T03:31:47;9.18;;;6.00;;
48327;SDS011;34136;51.022;7.082;2022-07-24T03:34:33;7.65;;;6.18;;
48327;SDS011;34136;51.022;7.082;2022-07-24T03:37:19;8.35;;;6.35;;
48327;SDS011;34136;51.022;7.082;2022-07-24T03:40:06;8.15;;;5.85;;
48327;SDS011;34136;51.022;7.082;2022-07-24T03:42:52;9.13;;;7.00;;
48327;SDS011;34136;51.022;7.082;2022-07-24T03:45:39;8.70;;;6.32;;
48327;SDS011;34136;51.022;7.082;2022-07-24T03:48:25;7.72;;;6.28;;
48327;SDS011;34136;51.022;7.082;2022-07-24T03:51:11;7.05;;;5.85;;
48327;SDS011;34136;51.022;7.082;2022-07-24T03:53:58;7.78;;;6.28;;
48327;SDS011;34136;51.022;7.082;2022-07-24T03:56:44;7.75;;;6.30;;
48327;SDS011;34136;51.022;7.082;2022-07-24T03:59:30;8.88;;;6.38;;
48327;SDS011;34136;51.022;7.082;2022-07-24T04:02:16;7.65;;;5.80;;
48327;SDS011;34136;51.022;7.082;2022-07-24T04:05:03;8.18;;;6.28;;
48327;SDS011;34136;51.022;7.082;2022-07-24T04:07:49;9.18;;;7.05;;
48327;SDS011;34136;51.022;7.082;2022-07-24T04:10:35;8.40;;;6.65;;
48327;SDS011;34136;51.022;7.082;2022-07-24T04:13:22;6.95;;;5.88;;
48327;SDS011;34136;51.022;7.082;2022-07-24T04:16:12;10.95;;;6.10;;
48327;SDS011;34136;51.022;7.082;2022-07-24T04:18:58;7.70;;;6.03;;
48327;SDS011;34136;51.022;7.082;2022-07-24T04:21:44;6.95;;;5.88;;
48327;SDS011;34136;51.022;7.082;2022-07-24T04:24:30;6.45;;;5.85;;
48327;SDS011;34136;51.022;7.082;2022-07-24T04:27:17;9.55;;;6.22;;
48327;SDS011;34136;51.022;7.082;2022-07-24T04:30:03;7.85;;;6.55;;
48327;SDS011;34136;51.022;7.082;2022-07-24T04:32:50;6.35;;;5.70;;
48327;SDS011;34136;51.022;7.082;2022-07-24T04:35:36;7.15;;;5.80;;
48327;SDS011;34136;51.022;7.082;2022-07-24T04:38:22;6.80;;;5.95;;
48327;SDS011;34136;51.022;7.082;2022-07-24T04:41:09;7.55;;;6.18;;
48327;SDS011;34136;51.022;7.082;2022-07-24T04:43:55;6.95;;;5.65;;
48327;SDS011;34136;51.022;7.082;2022-07-24T04:46:41;6.20;;;5.60;;
48327;SDS011;34136;51.022;7.082;2022-07-24T04:49:28;8.38;;;6.55;;
48327;SDS011;34136;51.022;7.082;2022-07-24T04:52:14;8.45;;;5.57;;
48327;SDS011;34136;51.022;7.082;2022-07-24T04:55:01;6.80;;;5.60;;
48327;SDS011;34136;51.022;7.082;2022-07-24T04:57:47;6.18;;;5.63;;
48327;SDS011;34136;51.022;7.082;2022-07-24T05:00:33;5.95;;;5.40;;
48327;SDS011;34136;51.022;7.082;2022-07-24T05:03:19;7.03;;;5.28;;
48327;SDS011;34136;51.022;7.082;2022-07-24T05:06:06;5.82;;;5.10;;
48327;SDS011;34136;51.022;7.082;2022-07-24T05:08:53;6.03;;;5.43;;
48327;SDS011;34136;51.022;7.082;2022-07-24T05:11:39;6.15;;;5.30;;
48327;SDS011;34136;51.022;7.082;2022-07-24T05:14:25;5.88;;;4.90;;
48327;SDS011;34136;51.022;7.082;2022-07-24T05:17:11;5.88;;;5.28;;
48327;SDS011;34136;51.022;7.082;2022-07-24T05:19:58;6.97;;;4.88;;
48327;SDS011;34136;51.022;7.082;2022-07-24T05:22:44;5.22;;;4.72;;
48327;SDS011;34136;51.022;7.082;2022-07-24T05:25:30;5.22;;;4.70;;
48327;SDS011;34136;51.022;7.082;2022-07-24T05:28:17;5.75;;;4.90;;
48327;SDS011;34136;51.022;7.082;2022-07-24T05:31:03;4.88;;;4.38;;
48327;SDS011;34136;51.022;7.082;2022-07-24T05:33:50;6.68;;;5.05;;
48327;SDS011;34136;51.022;7.082;2022-07-24T05:36:36;5.35;;;4.80;;
48327;SDS011;34136;51.022;7.082;2022-07-24T05:39:22;6.65;;;4.60;;
48327;SDS011;34136;51.022;7.082;2022-07-24T05:42:08;5.70;;;4.72;;
48327;SDS011;34136;51.022;7.082;2022-07-24T05:44:55;5.63;;;4.63;;
48327;SDS011;34136;51.022;7.082;2022-07-24T05:47:41;6.75;;;4.47;;
48327;SDS011;34136;51.022;7.082;2022-07-24T05:50:28;5.90;;;4.63;;
48327;SDS011;34136;51.022;7.082;2022-07-24T05:53:14;6.53;;;4.60;;
48327;SDS011;34136;51.022;7.082;2022-07-24T05:56:00;4.93;;;4.30;;
48327;SDS011;34136;51.022;7.082;2022-07-24T05:58:47;7.00;;;4.38;;
48327;SDS011;34136;51.022;7.082;2022-07-24T06:01:33;7.22;;;4.32;;
48327;SDS011;34136;51.022;7.082;2022-07-24T06:04:19;4.72;;;4.20;;
48327;SDS011;34136;51.022;7.082;2022-07-24T06:07:06;4.57;;;3.78;;
48327;SDS011;34136;51.022;7.082;2022-07-24T06:09:52;5.78;;;4.10;;
48327;SDS011;34136;51.022;7.082;2022-07-24T06:12:38;5.65;;;4.15;;
48327;SDS011;34136;51.022;7.082;2022-07-24T06:15:25;4.32;;;3.78;;
48327;SDS011;34136;51.022;7.082;2022-07-24T06:18:11;6.43;;;4.15;;
48327;SDS011;34136;51.022;7.082;2022-07-24T06:20:57;4.38;;;3.97;;
48327;SDS011;34136;51.022;7.082;2022-07-24T06:23:43;6.72;;;3.67;;
48327;SDS011;34136;51.022;7.082;2022-07-24T06:26:30;3.88;;;3.47;;
48327;SDS011;34136;51.022;7.082;2022-07-24T06:29:16;3.72;;;3.42;;
48327;SDS011;34136;51.022;7.082;2022-07-24T06:32:02;5.40;;;3.42;;
48327;SDS011;34136;51.022;7.082;2022-07-24T06:34:49;4.75;;;3.67;;
48327;SDS011;34136;51.022;7.082;2022-07-24T06:37:35;4.22;;;3.15;;
48327;SDS011;34136;51.022;7.082;2022-07-24T06:40:21;3.92;;;3.45;;
48327;SDS011;34136;51.022;7.082;2022-07-24T06:43:08;5.68;;;3.40;;
48327;SDS011;34136;51.022;7.082;2022-07-24T06:45:54;3.53;;;3.00;;
48327;SDS011;34136;51.022;7.082;2022-07-24T06:48:40;5.32;;;3.70;;
48327;SDS011;34136;51.022;7.082;2022-07-24T06:51:26;4.35;;;3.08;;
48327;SDS011;34136;51.022;7.082;2022-07-24T06:54:12;4.07;;;3.30;;
48327;SDS011;34136;51.022;7.082;2022-07-24T06:56:59;7.05;;;3.63;;
48327;SDS011;34136;51.022;7.082;2022-07-24T06:59:45;6.03;;;3.55;;
48327;SDS011;34136;51.022;7.082;2022-07-24T07:02:31;4.10;;;3.20;;
48327;SDS011;34136;51.022;7.082;2022-07-24T07:05:18;3.58;;;3.17;;
48327;SDS011;34136;51.022;7.082;2022-07-24T07:08:04;5.32;;;3.45;;
48327;SDS011;34136;51.022;7.082;2022-07-24T07:10:51;4.60;;;3.35;;
48327;SDS011;34136;51.022;7.082;2022-07-24T07:13:37;6.18;;;3.13;;
48327;SDS011;34136;51.022;7.082;2022-07-24T07:16:23;3.95;;;2.90;;
48327;SDS011;34136;51.022;7.082;2022-07-24T07:19:10;5.35;;;3.28;;
48327;SDS011;34136;51.022;7.082;2022-07-24T07:21:56;3.70;;;3.10;;
48327;SDS011;34136;51.022;7.082;2022-07-24T07:24:42;4.07;;;3.47;;
48327;SDS011;34136;51.022;7.082;2022-07-24T07:27:28;4.35;;;3.30;;
48327;SDS011;34136;51.022;7.082;2022-07-24T07:30:15;5.05;;;3.58;;
48327;SDS011;34136;51.022;7.082;2022-07-24T07:33:01;4.18;;;3.45;;
48327;SDS011;34136;51.022;7.082;2022-07-24T07:35:47;5.20;;;2.88;;
48327;SDS011;34136;51.022;7.082;2022-07-24T07:38:33;5.40;;;3.17;;
48327;SDS011;34136;51.022;7.082;2022-07-24T07:41:20;4.72;;;3.33;;
48327;SDS011;34136;51.022;7.082;2022-07-24T07:44:06;4.43;;;3.22;;
48327;SDS011;34136;51.022;7.082;2022-07-24T07:46:53;7.13;;;3.60;;
48327;SDS011;34136;51.022;7.082;2022-07-24T07:49:39;4.47;;;3.22;;
48327;SDS011;34136;51.022;7.082;2022-07-24T07:52:25;6.32;;;4.35;;
48327;SDS011;34136;51.022;7.082;2022-07-24T07:55:11;4.30;;;3.65;;
48327;SDS011;34136;51.022;7.082;2022-07-24T07:57:58;4.22;;;3.35;;
48327;SDS011;34136;51.022;7.082;2022-07-24T08:00:44;4.65;;;3.55;;
48327;SDS011;34136;51.022;7.082;2022-07-24T08:03:30;5.35;;;3.45;;
48327;SDS011;34136;51.022;7.082;2022-07-24T08:06:17;4.55;;;3.70;;
48327;SDS011;34136;51.022;7.082;2022-07-24T08:09:03;5.22;;;3.65;;
48327;SDS011;34136;51.022;7.082;2022-07-24T08:11:49;5.40;;;3.80;;
48327;SDS011;34136;51.022;7.082;2022-07-24T08:14:35;4.60;;;3.53;;
48327;SDS011;34136;51.022;7.082;2022-07-24T08:17:22;5.93;;;4.00;;
48327;SDS011;34136;51.022;7.082;2022-07-24T08:20:08;5.90;;;3.60;;
48327;SDS011;34136;51.022;7.082;2022-07-24T08:22:55;4.15;;;3.10;;
48327;SDS011;34136;51.022;7.082;2022-07-24T08:25:42;4.93;;;3.80;;
48327;SDS011;34136;51.022;7.082;2022-07-24T08:28:28;4.97;;;3.92;;
48327;SDS011;34136;51.022;7.082;2022-07-24T08:31:14;5.88;;;3.72;;
48327;SDS011;34136;51.022;7.082;2022-07-24T08:34:00;4.40;;;3.58;;
48327;SDS011;34136;51.022;7.082;2022-07-24T08:36:46;4.05;;;3.58;;
48327;SDS011;34136;51.022;7.082;2022-07-24T08:39:32;4.93;;;3.67;;
48327;SDS011;34136;51.022;7.082;2022-07-24T08:42:18;6.72;;;3.90;;
48327;SDS011;34136;51.022;7.082;2022-07-24T08:45:05;5.70;;;3.92;;
48327;SDS011;34136;51.022;7.082;2022-07-24T08:47:52;5.18;;;3.65;;
48327;SDS011;34136;51.022;7.082;2022-07-24T08:50:41;5.07;;;3.42;;
48327;SDS011;34136;51.022;7.082;2022-07-24T08:53:28;5.25;;;3.80;;
48327;SDS011;34136;51.022;7.082;2022-07-24T08:56:14;6.13;;;3.70;;
48327;SDS011;34136;51.022;7.082;2022-07-24T08:59:02;5.20;;;3.80;;
48327;SDS011;34136;51.022;7.082;2022-07-24T09:01:48;4.70;;;3.92;;
48327;SDS011;34136;51.022;7.082;2022-07-24T09:04:35;3.92;;;3.53;;
48327;SDS011;34136;51.022;7.082;2022-07-24T09:07:23;5.20;;;4.03;;
48327;SDS011;34136;51.022;7.082;2022-07-24T09:10:14;4.05;;;3.65;;
48327;SDS011;34136;51.022;7.082;2022-07-24T09:13:15;5.13;;;3.80;;
48327;SDS011;34136;51.022;7.082;2022-07-24T09:16:02;4.95;;;3.60;;
48327;SDS011;34136;51.022;7.082;2022-07-24T09:18:50;5.40;;;3.97;;
48327;SDS011;34136;51.022;7.082;2022-07-24T09:21:47;6.05;;;4.10;;
48327;SDS011;34136;51.022;7.082;2022-07-24T09:24:33;6.13;;;4.32;;
48327;SDS011;34136;51.022;7.082;2022-07-24T09:27:20;4.72;;;4.20;;
48327;SDS011;34136;51.022;7.082;2022-07-24T09:30:06;4.65;;;3.78;;
48327;SDS011;34136;51.022;7.082;2022-07-24T09:35:49;4.68;;;4.00;;
48327;SDS011;34136;51.022;7.082;2022-07-24T09:38:37;7.00;;;4.32;;
48327;SDS011;34136;51.022;7.082;2022-07-24T09:41:23;5.22;;;4.60;;
48327;SDS011;34136;51.022;7.082;2022-07-24T09:44:11;5.65;;;4.40;;
48327;SDS011;34136;51.022;7.082;2022-07-24T09:49:46;5.55;;;4.32;;
48327;SDS011;34136;51.022;7.082;2022-07-24T09:52:32;5.05;;;4.15;;
48327;SDS011;34136;51.022;7.082;2022-07-24T09:55:19;6.20;;;4.47;;
48327;SDS011;34136;51.022;7.082;2022-07-24T09:58:11;6.55;;;5.10;;
48327;SDS011;34136;51.022;7.082;2022-07-24T10:01:03;6.05;;;4.25;;
48327;SDS011;34136;51.022;7.082;2022-07-24T10:03:51;4.82;;;4.07;;
48327;SDS011;34136;51.022;7.082;2022-07-24T10:06:39;4.70;;;4.20;;
48327;SDS011;34136;51.022;7.082;2022-07-24T10:09:28;5.70;;;4.35;;
48327;SDS011;34136;51.022;7.082;2022-07-24T10:12:17;5.82;;;4.88;;
48327;SDS011;34136;51.022;7.082;2022-07-24T10:15:10;5.70;;;4.45;;
48327;SDS011;34136;51.022;7.082;2022-07-24T10:18:07;6.05;;;5.05;;
48327;SDS011;34136;51.022;7.082;2022-07-24T10:21:07;7.82;;;5.03;;
48327;SDS011;34136;51.022;7.082;2022-07-24T10:26:58;5.28;;;3.80;;
48327;SDS011;34136;51.022;7.082;2022-07-24T10:29:51;5.43;;;4.55;;
48327;SDS011;34136;51.022;7.082;2022-07-24T10:32:40;5.55;;;4.97;;
48327;SDS011;34136;51.022;7.082;2022-07-24T10:35:27;7.53;;;5.30;;
48327;SDS011;34136;51.022;7.082;2022-07-24T10:38:23;5.47;;;4.38;;
48327;SDS011;34136;51.022;7.082;2022-07-24T10:41:32;5.03;;;4.30;;
48327;SDS011;34136;51.022;7.082;2022-07-24T10:44:19;5.43;;;4.68;;
48327;SDS011;34136;51.022;7.082;2022-07-24T10:47:06;6.30;;;4.90;;
48327;SDS011;34136;51.022;7.082;2022-07-24T10:49:54;6.70;;;4.50;;
48327;SDS011;34136;51.022;7.082;2022-07-24T10:52:40;7.97;;;4.75;;
48327;SDS011;34136;51.022;7.082;2022-07-24T10:55:33;7.75;;;4.60;;
48327;SDS011;34136;51.022;7.082;2022-07-24T10:58:20;6.32;;;4.32;;
48327;SDS011;34136;51.022;7.082;2022-07-24T11:01:26;6.75;;;4.00;;
48327;SDS011;34136;51.022;7.082;2022-07-24T11:09:59;7.40;;;4.47;;
48327;SDS011;34136;51.022;7.082;2022-07-24T11:12:49;5.82;;;4.47;;
48327;SDS011;34136;51.022;7.082;2022-07-24T11:16:11;5.28;;;4.15;;
48327;SDS011;34136;51.022;7.082;2022-07-24T11:21:46;6.45;;;4.47;;
48327;SDS011;34136;51.022;7.082;2022-07-24T11:24:33;5.45;;;3.95;;
48327;SDS011;34136;51.022;7.082;2022-07-24T11:27:19;5.00;;;3.80;;
48327;SDS011;34136;51.022;7.082;2022-07-24T11:30:06;5.03;;;3.78;;
48327;SDS011;34136;51.022;7.082;2022-07-24T11:32:52;4.35;;;3.95;;
48327;SDS011;34136;51.022;7.082;2022-07-24T11:35:40;3.63;;;3.28;;
48327;SDS011;34136;51.022;7.082;2022-07-24T11:38:29;4.40;;;3.65;;
48327;SDS011;34136;51.022;7.082;2022-07-24T11:41:18;5.15;;;4.18;;
48327;SDS011;34136;51.022;7.082;2022-07-24T11:44:05;5.28;;;4.07;;
48327;SDS011;34136;51.022;7.082;2022-07-24T11:46:51;5.75;;;3.97;;
48327;SDS011;34136;51.022;7.082;2022-07-24T11:49:48;4.68;;;3.75;;
48327;SDS011;34136;51.022;7.082;2022-07-24T11:52:37;4.25;;;3.78;;
48327;SDS011;34136;51.022;7.082;2022-07-24T11:55:25;4.93;;;4.18;;
48327;SDS011;34136;51.022;7.082;2022-07-24T11:58:11;4.15;;;3.75;;
48327;SDS011;34136;51.022;7.082;2022-07-24T12:01:17;4.55;;;3.72;;
48327;SDS011;34136;51.022;7.082;2022-07-24T12:04:08;3.58;;;3.28;;
48327;SDS011;34136;51.022;7.082;2022-07-24T12:06:54;5.63;;;4.18;;
48327;SDS011;34136;51.022;7.082;2022-07-24T12:12:35;4.90;;;3.75;;
48327;SDS011;34136;51.022;7.082;2022-07-24T12:15:24;4.65;;;4.22;;
48327;SDS011;34136;51.022;7.082;2022-07-24T12:18:11;4.88;;;3.85;;
48327;SDS011;34136;51.022;7.082;2022-07-24T12:20:58;4.25;;;3.85;;
48327;SDS011;34136;51.022;7.082;2022-07-24T12:23:46;5.20;;;3.40;;
48327;SDS011;34136;51.022;7.082;2022-07-24T12:26:32;4.53;;;3.70;;
48327;SDS011;34136;51.022;7.082;2022-07-24T12:29:19;5.22;;;3.67;;
48327;SDS011;34136;51.022;7.082;2022-07-24T12:32:15;6.07;;;4.10;;
48327;SDS011;34136;51.022;7.082;2022-07-24T12:35:10;4.55;;;3.70;;
48327;SDS011;34136;51.022;7.082;2022-07-24T12:37:57;4.85;;;3.60;;
48327;SDS011;34136;51.022;7.082;2022-07-24T12:40:44;5.95;;;3.90;;
48327;SDS011;34136;51.022;7.082;2022-07-24T12:43:30;5.60;;;3.88;;
48327;SDS011;34136;51.022;7.082;2022-07-24T12:46:18;4.30;;;3.70;;
48327;SDS011;34136;51.022;7.082;2022-07-24T12:54:45;4.05;;;3.65;;
48327;SDS011;34136;51.022;7.082;2022-07-24T12:57:32;4.20;;;3.80;;
48327;SDS011;34136;51.022;7.082;2022-07-24T13:00:18;4.05;;;3.67;;
48327;SDS011;34136;51.022;7.082;2022-07-24T13:03:05;5.20;;;3.53;;
48327;SDS011;34136;51.022;7.082;2022-07-24T13:05:54;4.50;;;4.10;;
48327;SDS011;34136;51.022;7.082;2022-07-24T13:08:41;4.53;;;3.45;;
48327;SDS011;34136;51.022;7.082;2022-07-24T13:11:27;4.00;;;3.50;;
48327;SDS011;34136;51.022;7.082;2022-07-24T13:14:13;6.68;;;3.83;;
48327;SDS011;34136;51.022;7.082;2022-07-24T13:17:11;5.53;;;3.60;;
48327;SDS011;34136;51.022;7.082;2022-07-24T13:20:00;5.22;;;3.53;;
48327;SDS011;34136;51.022;7.082;2022-07-24T13:22:46;3.90;;;3.50;;
48327;SDS011;34136;51.022;7.082;2022-07-24T13:25:33;4.93;;;3.75;;
48327;SDS011;34136;51.022;7.082;2022-07-24T13:28:18;4.88;;;3.97;;
48327;SDS011;34136;51.022;7.082;2022-07-24T13:31:05;4.13;;;3.72;;
48327;SDS011;34136;51.022;7.082;2022-07-24T13:33:51;5.07;;;3.50;;
48327;SDS011;34136;51.022;7.082;2022-07-24T13:36:38;5.70;;;3.45;;
48327;SDS011;34136;51.022;7.082;2022-07-24T13:39:24;4.38;;;3.65;;
48327;SDS011;34136;51.022;7.082;2022-07-24T13:42:11;4.72;;;3.70;;
48327;SDS011;34136;51.022;7.082;2022-07-24T13:44:57;5.38;;;3.72;;
48327;SDS011;34136;51.022;7.082;2022-07-24T13:47:43;3.70;;;3.40;;
48327;SDS011;34136;51.022;7.082;2022-07-24T13:50:30;4.07;;;3.20;;
48327;SDS011;34136;51.022;7.082;2022-07-24T13:53:16;4.68;;;3.90;;
48327;SDS011;34136;51.022;7.082;2022-07-24T13:56:03;5.20;;;3.70;;
48327;SDS011;34136;51.022;7.082;2022-07-24T13:58:50;4.05;;;3.45;;
48327;SDS011;34136;51.022;7.082;2022-07-24T14:01:37;3.70;;;3.40;;
48327;SDS011;34136;51.022;7.082;2022-07-24T14:04:23;4.18;;;3.65;;
48327;SDS011;34136;51.022;7.082;2022-07-24T14:07:09;5.60;;;3.67;;
48327;SDS011;34136;51.022;7.082;2022-07-24T14:09:55;4.20;;;3.80;;
48327;SDS011;34136;51.022;7.082;2022-07-24T14:12:50;4.65;;;3.28;;
48327;SDS011;34136;51.022;7.082;2022-07-24T14:15:36;4.45;;;3.53;;
48327;SDS011;34136;51.022;7.082;2022-07-24T14:18:34;5.28;;;3.70;;
48327;SDS011;34136;51.022;7.082;2022-07-24T14:21:28;5.00;;;3.40;;
48327;SDS011;34136;51.022;7.082;2022-07-24T14:24:14;4.25;;;3.40;;
48327;SDS011;34136;51.022;7.082;2022-07-24T14:27:09;3.58;;;3.28;;
48327;SDS011;34136;51.022;7.082;2022-07-24T14:29:55;4.97;;;3.53;;
48327;SDS011;34136;51.022;7.082;2022-07-24T14:32:42;4.30;;;3.60;;
48327;SDS011;34136;51.022;7.082;2022-07-24T14:35:28;4.68;;;3.90;;
48327;SDS011;34136;51.022;7.082;2022-07-24T14:38:14;4.97;;;3.60;;
48327;SDS011;34136;51.022;7.082;2022-07-24T14:41:01;3.97;;;3.47;;
48327;SDS011;34136;51.022;7.082;2022-07-24T14:43:47;3.88;;;3.47;;
48327;SDS011;34136;51.022;7.082;2022-07-24T14:46:33;4.85;;;3.63;;
48327;SDS011;34136;51.022;7.082;2022-07-24T14:49:19;3.95;;;3.55;;
48327;SDS011;34136;51.022;7.082;2022-07-24T14:52:05;4.53;;;3.53;;
48327;SDS011;34136;51.022;7.082;2022-07-24T14:54:52;5.40;;;3.80;;
48327;SDS011;34136;51.022;7.082;2022-07-24T14:57:38;3.92;;;3.53;;
48327;SDS011;34136;51.022;7.082;2022-07-24T15:00:24;4.55;;;3.75;;
48327;SDS011;34136;51.022;7.082;2022-07-24T15:03:10;3.72;;;3.33;;
48327;SDS011;34136;51.022;7.082;2022-07-24T15:05:56;4.47;;;3.33;;
48327;SDS011;34136;51.022;7.082;2022-07-24T15:08:42;4.63;;;3.40;;
48327;SDS011;34136;51.022;7.082;2022-07-24T15:11:28;5.38;;;3.50;;
48327;SDS011;34136;51.022;7.082;2022-07-24T15:14:14;4.90;;;3.53;;
48327;SDS011;34136;51.022;7.082;2022-07-24T15:17:00;3.95;;;3.53;;
48327;SDS011;34136;51.022;7.082;2022-07-24T15:19:46;3.53;;;3.22;;
48327;SDS011;34136;51.022;7.082;2022-07-24T15:22:33;4.15;;;3.72;;
48327;SDS011;34136;51.022;7.082;2022-07-24T15:25:19;3.78;;;3.38;;
48327;SDS011;34136;51.022;7.082;2022-07-24T15:28:05;3.90;;;3.50;;
48327;SDS011;34136;51.022;7.082;2022-07-24T15:30:51;3.95;;;3.55;;
48327;SDS011;34136;51.022;7.082;2022-07-24T15:33:37;6.13;;;3.50;;
48327;SDS011;34136;51.022;7.082;2022-07-24T15:36:23;3.70;;;3.35;;
48327;SDS011;34136;51.022;7.082;2022-07-24T15:39:09;5.75;;;3.58;;
48327;SDS011;34136;51.022;7.082;2022-07-24T15:41:56;4.55;;;3.58;;
48327;SDS011;34136;51.022;7.082;2022-07-24T15:44:42;4.60;;;3.10;;
48327;SDS011;34136;51.022;7.082;2022-07-24T15:47:28;4.32;;;3.38;;
48327;SDS011;34136;51.022;7.082;2022-07-24T15:50:14;4.22;;;3.22;;
48327;SDS011;34136;51.022;7.082;2022-07-24T15:53:00;4.15;;;3.72;;
48327;SDS011;34136;51.022;7.082;2022-07-24T15:55:46;6.30;;;3.83;;
48327;SDS011;34136;51.022;7.082;2022-07-24T15:58:32;4.70;;;3.38;;
48327;SDS011;34136;51.022;7.082;2022-07-24T16:01:18;3.83;;;3.50;;
48327;SDS011;34136;51.022;7.082;2022-07-24T16:04:05;5.63;;;3.63;;
48327;SDS011;34136;51.022;7.082;2022-07-24T16:06:51;4.60;;;3.38;;
48327;SDS011;34136;51.022;7.082;2022-07-24T16:09:36;3.70;;;3.40;;
48327;SDS011;34136;51.022;7.082;2022-07-24T16:12:23;4.32;;;3.70;;
48327;SDS011;34136;51.022;7.082;2022-07-24T16:15:09;6.85;;;3.40;;
48327;SDS011;34136;51.022;7.082;2022-07-24T16:17:56;3.30;;;3.00;;
48327;SDS011;34136;51.022;7.082;2022-07-24T16:20:43;5.55;;;3.70;;
48327;SDS011;34136;51.022;7.082;2022-07-24T16:23:29;4.00;;;3.60;;
48327;SDS011;34136;51.022;7.082;2022-07-24T16:26:16;4.22;;;3.55;;
48327;SDS011;34136;51.022;7.082;2022-07-24T16:29:02;3.45;;;3.10;;
48327;SDS011;34136;51.022;7.082;2022-07-24T16:31:48;3.42;;;3.13;;
48327;SDS011;34136;51.022;7.082;2022-07-24T16:34:34;3.78;;;3.40;;
48327;SDS011;34136;51.022;7.082;2022-07-24T16:37:20;5.75;;;3.58;;
48327;SDS011;34136;51.022;7.082;2022-07-24T16:40:07;4.20;;;3.80;;
48327;SDS011;34136;51.022;7.082;2022-07-24T16:43:03;3.88;;;3.47;;
48327;SDS011;34136;51.022;7.082;2022-07-24T16:45:52;4.47;;;3.83;;
48327;SDS011;34136;51.022;7.082;2022-07-24T16:48:39;4.30;;;3.40;;
48327;SDS011;34136;51.022;7.082;2022-07-24T16:51:26;4.28;;;3.58;;
48327;SDS011;34136;51.022;7.082;2022-07-24T16:54:12;4.93;;;4.00;;
48327;SDS011;34136;51.022;7.082;2022-07-24T16:57:08;4.10;;;3.50;;
48327;SDS011;34136;51.022;7.082;2022-07-24T16:59:57;4.22;;;3.67;;
48327;SDS011;34136;51.022;7.082;2022-07-24T17:02:43;4.10;;;3.28;;
48327;SDS011;34136;51.022;7.082;2022-07-24T17:05:30;5.20;;;3.40;;
48327;SDS011;34136;51.022;7.082;2022-07-24T17:08:16;3.58;;;3.28;;
48327;SDS011;34136;51.022;7.082;2022-07-24T17:11:02;3.88;;;3.28;;
48327;SDS011;34136;51.022;7.082;2022-07-24T17:13:49;4.65;;;3.47;;